createdAt,value
2023-07-15T00:01:23.982Z,26.79
2023-07-15T00:04:13.950Z,26.78
2023-07-15T00:07:05.807Z,26.81
2023-07-15T00:09:54.514Z,26.76
2023-07-15T00:12:43.265Z,26.70
2023-07-15T00:15:33.336Z,26.68
2023-07-15T00:18:22.164Z,26.60
2023-07-15T00:21:17.299Z,26.50
2023-07-15T00:24:07.765Z,26.31
2023-07-15T00:26:59.547Z,26.47
2023-07-15T00:29:48.663Z,26.43
2023-07-15T00:32:38.829Z,26.40
2023-07-15T00:35:29.811Z,26.42
2023-07-15T00:38:18.240Z,26.36
2023-07-15T00:41:29.277Z,26.23
2023-07-15T00:44:17.836Z,26.10
2023-07-15T00:47:22.121Z,25.94
2023-07-15T00:50:13.485Z,26.07
2023-07-15T00:53:02.948Z,26.14
2023-07-15T00:55:51.609Z,26.02
2023-07-15T00:58:41.774Z,25.95
2023-07-15T01:01:30.409Z,25.94
2023-07-15T01:04:20.614Z,25.92
2023-07-15T01:07:09.279Z,25.74
2023-07-15T01:09:58.291Z,25.49
2023-07-15T01:12:47.994Z,25.65
2023-07-15T01:15:36.849Z,25.67
2023-07-15T01:18:25.632Z,25.57
2023-07-15T01:21:14.036Z,25.46
2023-07-15T01:25:09.933Z,25.44
2023-07-15T01:29:07.888Z,25.59
2023-07-15T01:33:04.798Z,25.59
2023-07-15T01:37:05.379Z,25.56
2023-07-15T01:41:00.807Z,25.41
2023-07-15T01:45:00.862Z,25.42
2023-07-15T01:48:57.121Z,25.34
2023-07-15T01:52:57.763Z,25.35
2023-07-15T01:56:51.561Z,25.22
2023-07-15T02:00:51.623Z,25.16
2023-07-15T02:04:48.779Z,25.08
2023-07-15T02:08:48.741Z,25.06
2023-07-15T02:12:45.083Z,25.16
2023-07-15T02:16:43.830Z,25.05
2023-07-15T02:20:39.773Z,24.78
2023-07-15T02:24:40.337Z,24.96
2023-07-15T02:28:36.740Z,25.12
2023-07-15T02:32:36.736Z,25.07
2023-07-15T02:36:33.243Z,25.22
2023-07-15T02:40:33.491Z,25.45
2023-07-15T02:44:31.702Z,25.43
2023-07-15T02:48:33.981Z,25.34
2023-07-15T02:52:32.959Z,25.39
2023-07-15T02:56:34.801Z,25.46
2023-07-15T03:00:32.950Z,25.64
2023-07-15T03:04:36.243Z,25.73
2023-07-15T03:08:35.057Z,25.98
2023-07-15T03:12:36.638Z,26.10
2023-07-15T03:16:35.718Z,26.23
2023-07-15T03:20:38.781Z,26.32
2023-07-15T03:24:37.002Z,26.45
2023-07-15T03:28:39.447Z,26.59
2023-07-15T03:32:36.944Z,26.75
2023-07-15T03:36:39.794Z,26.94
2023-07-15T03:40:39.991Z,27.06
2023-07-15T03:44:42.324Z,27.24
2023-07-15T03:48:41.911Z,27.29
2023-07-15T03:52:43.885Z,27.45
2023-07-15T03:56:43.948Z,27.63
2023-07-15T04:00:45.945Z,27.67
2023-07-15T04:04:45.007Z,27.79
2023-07-15T04:08:47.000Z,27.81
2023-07-15T04:12:46.120Z,27.98
2023-07-15T04:16:49.458Z,28.23
2023-07-15T04:20:46.995Z,28.26
2023-07-15T04:24:49.006Z,28.42
2023-07-15T04:28:47.031Z,28.63
2023-07-15T04:32:48.945Z,28.78
2023-07-15T04:36:50.008Z,28.80
2023-07-15T04:40:51.491Z,28.69
2023-07-15T04:44:51.266Z,28.78
2023-07-15T04:48:54.713Z,28.90
2023-07-15T04:52:54.130Z,28.98
2023-07-15T04:56:58.089Z,29.10
2023-07-15T05:00:57.091Z,29.29
2023-07-15T05:04:58.822Z,29.54
2023-07-15T05:08:57.137Z,29.82
2023-07-15T05:12:57.918Z,30.03
2023-07-15T05:16:59.830Z,30.21
2023-07-15T05:20:58.088Z,30.16
2023-07-15T05:25:00.035Z,30.23
2023-07-15T05:28:59.201Z,30.35
2023-07-15T05:33:00.625Z,30.51
2023-07-15T05:37:00.276Z,30.57
2023-07-15T05:41:01.989Z,30.74
2023-07-15T05:45:00.985Z,30.91
2023-07-15T05:49:03.162Z,31.01
2023-07-15T05:53:01.950Z,31.23
2023-07-15T05:57:04.493Z,31.42
2023-07-15T06:01:03.262Z,31.62
2023-07-15T06:05:05.630Z,31.89
2023-07-15T06:09:04.294Z,32.12
2023-07-15T06:13:06.187Z,32.38
2023-07-15T06:17:08.251Z,32.52
2023-07-15T06:21:11.077Z,32.56
2023-07-15T06:25:12.835Z,32.57
2023-07-15T06:29:15.671Z,32.67
2023-07-15T06:33:14.119Z,32.86
2023-07-15T06:37:16.673Z,32.94
2023-07-15T06:41:16.114Z,33.19
2023-07-15T06:45:19.234Z,33.43
2023-07-15T06:49:18.006Z,33.53
2023-07-15T06:53:20.380Z,33.67
2023-07-15T06:57:20.192Z,33.84
2023-07-15T07:01:21.485Z,33.92
2023-07-15T07:05:22.349Z,34.15
2023-07-15T07:09:24.286Z,34.35
2023-07-15T07:13:23.396Z,34.57
2023-07-15T07:17:25.761Z,34.67
2023-07-15T07:21:24.179Z,34.87
2023-07-15T07:25:25.862Z,35.04
2023-07-15T07:29:23.471Z,35.20
2023-07-15T07:33:27.029Z,35.43
2023-07-15T07:37:27.268Z,35.68
2023-07-15T07:41:28.821Z,35.63
2023-07-15T07:45:26.239Z,35.87
2023-07-15T07:49:28.269Z,36.12
2023-07-15T07:53:28.353Z,36.24
2023-07-15T07:57:30.376Z,36.40
2023-07-15T08:01:29.176Z,36.58
2023-07-15T08:05:31.338Z,36.41
2023-07-15T08:09:29.377Z,36.44
2023-07-15T08:13:32.017Z,36.56
2023-07-15T08:17:35.802Z,36.70
2023-07-15T08:21:48.975Z,36.82
2023-07-15T08:25:51.336Z,36.98
2023-07-15T08:29:52.903Z,36.94
2023-07-15T08:33:51.389Z,36.98
2023-07-15T08:37:54.957Z,37.06
2023-07-15T08:41:53.447Z,37.01
2023-07-15T08:45:56.945Z,37.08
2023-07-15T08:49:56.412Z,37.15
2023-07-15T08:53:58.572Z,37.05
2023-07-15T08:57:59.839Z,37.25
2023-07-15T09:01:59.523Z,37.31
2023-07-15T09:06:01.105Z,37.29
2023-07-15T09:09:43.357Z,37.39
2023-07-15T09:13:42.866Z,37.41
2023-07-15T09:17:46.476Z,37.32
2023-07-15T09:21:45.401Z,37.50
2023-07-15T09:25:49.992Z,37.67
2023-07-15T09:29:49.553Z,37.70
2023-07-15T09:33:52.228Z,37.27
2023-07-15T09:37:51.550Z,37.25
2023-07-15T09:41:53.697Z,37.57
2023-07-15T09:45:52.437Z,37.56
2023-07-15T09:49:55.020Z,37.73
2023-07-15T09:53:52.525Z,37.70
2023-07-15T09:57:54.361Z,37.73
2023-07-15T10:02:03.597Z,37.41
2023-07-15T10:06:05.210Z,37.27
2023-07-15T10:10:04.595Z,37.39
2023-07-15T10:14:07.222Z,37.20
2023-07-15T10:18:05.931Z,37.25
2023-07-15T10:22:08.290Z,37.28
2023-07-15T10:26:25.570Z,37.28
2023-07-15T10:30:27.626Z,37.46
2023-07-15T10:34:25.470Z,37.70
2023-07-15T10:38:34.330Z,37.90
2023-07-15T10:42:33.537Z,38.01
2023-07-15T10:46:35.504Z,37.84
2023-07-15T10:50:34.922Z,38.11
2023-07-15T10:54:36.310Z,38.23
2023-07-15T10:58:34.529Z,38.35
2023-07-15T11:02:29.940Z,38.57
2023-07-15T11:06:18.886Z,38.81
2023-07-15T11:10:06.139Z,38.69
2023-07-15T11:13:53.575Z,38.54
2023-07-15T11:17:42.128Z,38.72
2023-07-15T11:21:29.220Z,38.71
2023-07-15T11:25:16.155Z,38.72
2023-07-15T11:29:03.361Z,38.85
2023-07-15T11:32:50.175Z,39.12
2023-07-15T11:36:38.164Z,39.24
2023-07-15T11:40:24.753Z,39.52
2023-07-15T11:44:11.313Z,39.93
2023-07-15T11:47:58.663Z,39.76
2023-07-15T11:51:45.700Z,39.79
2023-07-15T11:55:33.313Z,39.88
2023-07-15T11:59:20.763Z,40.20
2023-07-15T12:03:07.543Z,40.22
2023-07-15T12:06:54.888Z,40.21
2023-07-15T12:10:41.870Z,39.93
2023-07-15T12:14:29.727Z,39.55
2023-07-15T12:18:24.177Z,39.31
2023-07-15T12:22:09.784Z,39.31
2023-07-15T12:25:55.499Z,39.32
2023-07-15T12:29:41.347Z,39.15
2023-07-15T12:33:27.995Z,39.04
2023-07-15T12:37:15.005Z,39.16
2023-07-15T12:41:04.075Z,39.06
2023-07-15T12:44:50.599Z,38.55
2023-07-15T12:48:37.640Z,38.83
2023-07-15T12:52:24.581Z,39.65
2023-07-15T12:56:13.607Z,40.38
2023-07-15T13:00:00.937Z,40.80
2023-07-15T13:03:49.995Z,41.05
2023-07-15T13:07:36.615Z,41.46
2023-07-15T13:11:25.771Z,41.72
2023-07-15T13:15:17.421Z,41.95
2023-07-15T13:18:50.025Z,41.49
2023-07-15T13:22:39.374Z,41.42
2023-07-15T13:26:27.019Z,41.78
2023-07-15T13:30:14.168Z,41.98
2023-07-15T13:34:01.933Z,41.77
2023-07-15T13:37:48.838Z,41.80
2023-07-15T13:41:36.724Z,41.66
2023-07-15T13:45:21.986Z,41.59
2023-07-15T13:49:06.903Z,41.52
2023-07-15T13:52:58.784Z,41.55
2023-07-15T13:56:51.227Z,41.37
2023-07-15T14:00:45.094Z,41.18
2023-07-15T14:04:46.854Z,41.10
2023-07-15T14:08:44.791Z,41.04
2023-07-15T14:12:45.807Z,41.27
2023-07-15T14:16:43.815Z,41.23
2023-07-15T14:20:41.820Z,40.84
2023-07-15T14:24:34.840Z,40.23
2023-07-15T14:28:38.811Z,39.42
2023-07-15T14:32:37.834Z,38.79
2023-07-15T14:36:34.681Z,38.32
2023-07-15T14:40:23.369Z,37.89
2023-07-15T14:44:16.520Z,37.44
2023-07-15T14:48:05.809Z,37.55
2023-07-15T14:51:53.046Z,37.70
2023-07-15T14:55:40.639Z,37.95
2023-07-15T14:59:26.413Z,38.17
2023-07-15T15:03:13.491Z,38.20
2023-07-15T15:07:00.808Z,38.09
2023-07-15T15:10:48.173Z,37.80
2023-07-15T15:14:34.922Z,37.72
2023-07-15T15:18:21.813Z,37.65
2023-07-15T15:22:08.912Z,37.46
2023-07-15T15:25:55.374Z,37.36
2023-07-15T15:29:44.268Z,37.11
2023-07-15T15:33:30.190Z,36.98
2023-07-15T15:37:16.801Z,36.87
2023-07-15T15:41:04.587Z,36.79
2023-07-15T15:44:51.460Z,36.77
2023-07-15T15:48:40.697Z,36.73
2023-07-15T15:52:28.404Z,36.56
2023-07-15T15:56:12.910Z,36.40
2023-07-15T16:00:01.557Z,36.12
2023-07-15T16:03:57.367Z,35.93
2023-07-15T16:07:42.258Z,35.85
2023-07-15T16:11:27.743Z,35.83
2023-07-15T16:15:12.663Z,35.71
2023-07-15T16:18:58.081Z,35.56
2023-07-15T16:22:43.458Z,35.36
2023-07-15T16:26:30.011Z,35.24
2023-07-15T16:30:18.062Z,35.17
2023-07-15T16:34:04.522Z,35.11
2023-07-15T16:37:51.342Z,35.00
2023-07-15T16:41:38.529Z,34.87
2023-07-15T16:45:26.767Z,34.84
2023-07-15T16:49:13.193Z,34.72
2023-07-15T16:52:59.922Z,34.62
2023-07-15T16:56:46.759Z,34.58
2023-07-15T17:00:34.288Z,34.49
2023-07-15T17:04:20.849Z,34.36
2023-07-15T17:08:08.303Z,34.30
2023-07-15T17:11:55.194Z,34.15
2023-07-15T17:15:42.189Z,33.92
2023-07-15T17:19:29.691Z,33.76
2023-07-15T17:23:18.609Z,33.58
2023-07-15T17:27:05.321Z,33.41
2023-07-15T17:30:51.902Z,33.11
2023-07-15T17:34:38.610Z,32.85
2023-07-15T17:38:25.236Z,32.73
2023-07-15T17:42:12.801Z,32.56
2023-07-15T17:46:00.014Z,32.33
2023-07-15T17:49:46.762Z,32.08
2023-07-15T17:53:34.284Z,31.94
2023-07-15T17:57:21.761Z,31.67
2023-07-15T18:01:10.263Z,31.49
2023-07-15T18:04:56.909Z,31.23
2023-07-15T18:08:43.547Z,30.93
2023-07-15T18:12:32.240Z,30.84
2023-07-15T18:16:18.872Z,30.93
2023-07-15T18:20:06.463Z,30.74
2023-07-15T18:23:53.179Z,30.49
2023-07-15T18:27:44.291Z,30.32
2023-07-15T18:31:31.104Z,30.14
2023-07-15T18:35:16.175Z,29.97
2023-07-15T18:39:01.074Z,29.71
2023-07-15T18:42:48.315Z,29.55
2023-07-15T18:46:35.679Z,29.54
2023-07-15T18:50:23.186Z,29.44
2023-07-15T18:54:10.341Z,29.23
2023-07-15T18:57:57.562Z,29.01
2023-07-15T19:01:44.297Z,28.81
2023-07-15T19:05:32.305Z,28.55
2023-07-15T19:09:19.093Z,28.40
2023-07-15T19:13:05.981Z,28.31
2023-07-15T19:16:55.080Z,28.14
2023-07-15T19:20:42.072Z,28.05
2023-07-15T19:24:31.325Z,27.98
2023-07-15T19:28:16.043Z,27.91
2023-07-15T19:32:02.877Z,27.86
2023-07-15T19:35:49.894Z,27.55
2023-07-15T19:39:34.812Z,27.36
2023-07-15T19:43:20.168Z,27.22
2023-07-15T19:47:05.388Z,27.12
2023-07-15T19:50:50.543Z,27.00
2023-07-15T19:54:46.459Z,26.92
2023-07-15T19:58:49.077Z,26.82
2023-07-15T20:02:48.516Z,26.72
2023-07-15T20:06:43.865Z,26.53
2023-07-15T20:10:30.500Z,26.51
2023-07-15T20:14:17.612Z,26.50
2023-07-15T20:18:06.419Z,26.38
2023-07-15T20:21:52.616Z,26.30
2023-07-15T20:25:38.318Z,26.27
2023-07-15T20:29:23.475Z,26.11
2023-07-15T20:33:08.953Z,25.99
2023-07-15T20:37:01.796Z,25.83
2023-07-15T20:41:02.825Z,25.93
2023-07-15T20:44:46.187Z,25.88
2023-07-15T20:48:45.705Z,25.79
2023-07-15T20:52:47.442Z,25.70
2023-07-15T20:56:46.676Z,25.60
2023-07-15T21:00:42.361Z,25.52
2023-07-15T21:04:27.581Z,25.53
2023-07-15T21:08:12.312Z,25.34
2023-07-15T21:11:57.425Z,25.31
2023-07-15T21:15:48.511Z,25.11
2023-07-15T21:19:46.686Z,25.13
2023-07-15T21:23:47.967Z,25.16
2023-07-15T21:27:46.737Z,25.15
2023-07-15T21:31:48.109Z,25.09
2023-07-15T21:35:45.694Z,24.90
2023-07-15T21:39:45.444Z,24.87
2023-07-15T21:43:31.389Z,24.85
2023-07-15T21:47:16.206Z,24.75
2023-07-15T21:51:01.623Z,24.64
2023-07-15T21:54:52.933Z,24.62
2023-07-15T21:58:51.823Z,24.57
2023-07-15T22:02:53.298Z,24.51
2023-07-15T22:06:51.659Z,24.49
2023-07-15T22:10:53.238Z,24.52
2023-07-15T22:14:53.784Z,24.52
2023-07-15T22:18:47.968Z,24.24
2023-07-15T22:22:33.979Z,24.18
2023-07-15T22:26:18.995Z,24.17
2023-07-15T22:30:12.171Z,24.09
2023-07-15T22:34:13.447Z,24.05
2023-07-15T22:38:13.861Z,24.11
2023-07-15T22:42:15.776Z,24.00
2023-07-15T22:46:13.845Z,23.95
2023-07-15T22:50:15.175Z,23.94
2023-07-15T22:54:12.738Z,23.90
2023-07-15T22:58:10.829Z,23.81
2023-07-15T23:02:03.868Z,23.69
2023-07-15T23:06:01.248Z,23.61
2023-07-15T23:09:59.865Z,23.55
2023-07-15T23:14:02.425Z,23.56
2023-07-15T23:18:01.994Z,23.54
2023-07-15T23:22:03.211Z,23.51
2023-07-15T23:26:00.802Z,23.46
2023-07-15T23:30:02.883Z,23.41
2023-07-15T23:34:01.787Z,23.38
2023-07-15T23:38:02.798Z,23.41
2023-07-15T23:42:00.047Z,23.48
2023-07-15T23:46:01.373Z,23.48
2023-07-15T23:49:58.913Z,23.46
2023-07-15T23:54:00.284Z,23.53
2023-07-15T23:57:57.764Z,23.53
